Time;durP1;ratioP1;P1;durP2;ratioP2;P2;SDS_P1;SDS_P2;PMS_P1;PMS_P2;Temp;Humidity;BMP_temperature;BMP_pressure;BME280_temperature;BME280_humidity;BME280_pressure;Samples;Min_cycle;Max_cycle;Signal;HPM_P1;HPM_P2
2021/12/09 00:01:06;;;;;;;10.43;2.05;;;6.20;90.90;;;;;;5063406;28;20060;-60
2021/12/09 00:03:36;;;;;;;11.23;2.40;;;6.20;91.00;;;;;;5066097;28;20080;-60
2021/12/09 00:06:03;;;;;;;15.18;2.30;;;6.20;90.90;;;;;;5046612;28;20062;-61
2021/12/09 00:08:30;;;;;;;11.23;2.38;;;6.20;91.00;;;;;;5044804;28;20049;-62
2021/12/09 00:10:59;;;;;;;13.90;2.30;;;6.20;90.90;;;;;;5029077;28;20056;-60
2021/12/09 00:13:26;;;;;;;13.32;2.45;;;6.20;90.80;;;;;;5065941;28;20091;-60
2021/12/09 00:15:54;;;;;;;10.25;2.08;;;6.20;90.90;;;;;;5064790;28;20051;-61
2021/12/09 00:18:21;;;;;;;9.73;2.60;;;6.20;91.00;;;;;;5051614;28;20045;-60
2021/12/09 00:20:48;;;;;;;13.20;2.17;;;6.20;91.00;;;;;;5056384;28;20489;-60
2021/12/09 00:23:14;;;;;;;10.57;2.55;;;6.10;91.10;;;;;;5049568;28;20049;-60
2021/12/09 00:25:41;;;;;;;12.90;2.17;;;6.30;91.40;;;;;;5058222;28;20044;-60
2021/12/09 00:28:34;;;;;;;9.45;2.22;;;6.10;91.10;;;;;;5082311;28;20052;-60
2021/12/09 00:31:01;;;;;;;11.48;2.30;;;6.10;91.20;;;;;;5032548;28;20128;-61
2021/12/09 00:33:28;;;;;;;8.27;2.03;;;6.10;91.30;;;;;;5054759;28;20045;-59
2021/12/09 00:35:57;;;;;;;12.30;2.00;;;6.00;91.10;;;;;;5054132;28;20127;-60
2021/12/09 00:38:36;;;;;;;13.73;2.55;;;6.00;91.10;;;;;;5053931;28;20044;-60
2021/12/09 00:41:05;;;;;;;12.38;2.30;;;6.00;91.10;;;;;;5066153;28;20647;-59
2021/12/09 00:43:32;;;;;;;14.38;2.25;;;5.90;91.10;;;;;;5054447;28;20049;-61
2021/12/09 00:45:59;;;;;;;14.38;3.03;;;5.90;91.30;;;;;;5053932;28;20077;-61
2021/12/09 00:48:26;;;;;;;20.38;5.60;;;5.90;91.20;;;;;;5056270;28;20500;-61
2021/12/09 00:50:54;;;;;;;24.42;4.15;;;6.00;91.40;;;;;;5052118;28;20040;-61
2021/12/09 00:53:20;;;;;;;17.38;3.00;;;6.00;91.30;;;;;;5059791;28;20041;-61
2021/12/09 00:55:47;;;;;;;17.00;2.70;;;5.90;91.30;;;;;;5064393;28;20305;-61
2021/12/09 00:58:14;;;;;;;9.93;2.35;;;6.00;91.30;;;;;;5057104;28;20049;-61
2021/12/09 01:00:41;;;;;;;15.55;3.03;;;6.00;91.20;;;;;;5065882;28;20141;-61
2021/12/09 01:03:09;;;;;;;27.30;3.88;;;6.00;91.30;;;;;;5059077;28;20052;-61
2021/12/09 01:05:35;;;;;;;17.98;2.35;;;6.00;91.20;;;;;;5047104;28;20447;-61
2021/12/09 01:08:03;;;;;;;19.00;2.95;;;6.00;91.20;;;;;;5055431;28;20109;-60
2021/12/09 01:10:30;;;;;;;7.38;2.03;;;6.00;91.20;;;;;;5051862;28;20041;-59
2021/12/09 01:12:56;;;;;;;17.75;2.28;;;6.10;91.10;;;;;;5054175;28;20687;-61
2021/12/09 01:15:23;;;;;;;24.83;5.57;;;6.00;91.10;;;;;;5060109;28;20095;-59
2021/12/09 01:17:50;;;;;;;22.25;3.05;;;6.00;91.20;;;;;;5053849;28;20468;-61
2021/12/09 01:20:18;;;;;;;12.93;2.03;;;6.00;91.30;;;;;;5029835;28;20081;-61
2021/12/09 01:22:46;;;;;;;15.23;2.67;;;6.10;91.00;;;;;;5047688;28;20052;-59
2021/12/09 01:25:15;;;;;;;14.68;2.80;;;6.10;90.80;;;;;;5066907;28;20510;-61
2021/12/09 01:27:44;;;;;;;17.85;2.47;;;6.10;90.90;;;;;;5065040;28;20032;-60
2021/12/09 01:30:15;;;;;;;12.85;2.83;;;6.10;90.90;;;;;;5052924;28;20056;-60
2021/12/09 01:32:48;;;;;;;16.88;4.00;;;6.10;90.70;;;;;;5053555;28;20045;-59
2021/12/09 01:35:17;;;;;;;9.33;2.23;;;6.00;90.70;;;;;;5058564;28;20076;-59
2021/12/09 01:37:45;;;;;;;16.40;3.67;;;6.00;90.80;;;;;;5053902;28;20316;-60
2021/12/09 01:40:12;;;;;;;23.85;2.88;;;6.00;90.60;;;;;;5064358;28;20086;-60
2021/12/09 01:42:39;;;;;;;15.55;3.45;;;6.00;90.50;;;;;;5064408;28;20045;-60
2021/12/09 01:45:06;;;;;;;6.30;1.55;;;6.10;90.50;;;;;;5057387;28;20088;-60
2021/12/09 01:47:33;;;;;;;18.23;2.97;;;6.10;90.60;;;;;;5053205;28;20052;-60
2021/12/09 01:50:00;;;;;;;12.50;2.72;;;6.10;90.50;;;;;;5058463;28;20495;-59
2021/12/09 01:52:27;;;;;;;20.73;2.35;;;6.10;90.40;;;;;;5041217;28;20216;-60
2021/12/09 01:54:53;;;;;;;16.67;2.65;;;6.10;90.00;;;;;;5051566;28;20075;-59
2021/12/09 01:57:20;;;;;;;14.38;2.53;;;6.10;90.30;;;;;;5048972;28;20080;-60
2021/12/09 01:59:48;;;;;;;16.88;3.25;;;6.10;90.20;;;;;;5057395;28;20064;-60
2021/12/09 02:02:15;;;;;;;16.23;3.53;;;6.20;89.40;;;;;;5050294;28;20068;-60
2021/12/09 02:04:42;;;;;;;8.93;2.40;;;6.20;89.80;;;;;;5060921;28;20553;-60
2021/12/09 02:07:09;;;;;;;14.65;2.30;;;6.20;89.80;;;;;;5048277;28;20076;-59
2021/12/09 02:09:38;;;;;;;10.57;2.40;;;6.20;89.80;;;;;;5052897;28;20057;-61
2021/12/09 02:12:05;;;;;;;9.32;2.00;;;6.20;89.90;;;;;;5068502;28;20048;-60
2021/12/09 02:14:32;;;;;;;11.65;2.05;;;6.20;89.30;;;;;;5056879;28;20049;-62
2021/12/09 02:16:59;;;;;;;20.38;3.88;;;6.20;89.20;;;;;;4695348;28;10000303;-60
2021/12/09 02:19:26;;;;;;;22.38;2.92;;;6.10;88.80;;;;;;5052346;28;20056;-61
2021/12/09 02:21:53;;;;;;;17.95;2.47;;;6.30;89.20;;;;;;5054309;28;20053;-63
2021/12/09 02:24:20;;;;;;;20.05;2.53;;;6.20;88.70;;;;;;5043729;28;20080;-60
2021/12/09 02:26:49;;;;;;;12.93;2.15;;;6.20;89.10;;;;;;5058617;28;20045;-60
2021/12/09 02:29:16;;;;;;;13.27;2.35;;;6.30;88.70;;;;;;5052552;28;20045;-60
2021/12/09 02:31:43;;;;;;;14.73;3.10;;;6.20;88.20;;;;;;5060252;28;20491;-60
2021/12/09 02:34:10;;;;;;;12.20;2.70;;;6.20;88.00;;;;;;5063871;28;20041;-60
2021/12/09 02:36:39;;;;;;;17.35;2.53;;;6.20;89.00;;;;;;5056954;28;20077;-60
2021/12/09 02:39:07;;;;;;;16.48;2.72;;;6.10;89.10;;;;;;5038814;28;20071;-60
2021/12/09 02:41:35;;;;;;;21.35;2.60;;;6.20;88.50;;;;;;5062363;28;20044;-60
2021/12/09 02:44:04;;;;;;;15.70;3.92;;;6.20;88.70;;;;;;5047871;28;20049;-60
2021/12/09 02:46:36;;;;;;;13.20;3.55;;;6.20;88.40;;;;;;5056660;28;20123;-60
2021/12/09 02:49:04;;;;;;;12.30;3.20;;;6.20;88.00;;;;;;5067621;28;20068;-60
2021/12/09 02:51:31;;;;;;;16.73;2.45;;;6.20;88.30;;;;;;5059592;28;20037;-61
2021/12/09 02:53:58;;;;;;;14.13;2.03;;;6.20;88.20;;;;;;5048456;28;20570;-60
2021/12/09 02:56:24;;;;;;;21.33;2.50;;;6.20;87.70;;;;;;5059071;28;20056;-60
2021/12/09 02:58:51;;;;;;;15.65;2.53;;;6.20;88.40;;;;;;5047921;28;20132;-60
2021/12/09 03:01:25;;;;;;;22.42;2.67;;;6.10;87.50;;;;;;5052245;28;20052;-60
2021/12/09 03:03:56;;;;;;;;;;;6.10;87.80;;;;;;5062670;28;20045;-61
2021/12/09 03:06:31;;;;;;;9.05;1.65;;;6.00;87.60;;;;;;5051049;28;20410;-61
2021/12/09 03:09:02;;;;;;;17.10;3.15;;;6.00;87.80;;;;;;5028039;28;20045;-60
2021/12/09 03:11:28;;;;;;;16.63;2.65;;;5.90;87.80;;;;;;5047205;28;20098;-60
2021/12/09 03:13:56;;;;;;;13.80;3.60;;;5.90;88.20;;;;;;5060268;28;20056;-61
2021/12/09 03:16:22;;;;;;;10.75;2.05;;;5.90;88.30;;;;;;5029765;28;20511;-61
2021/12/09 03:18:52;;;;;;;16.77;4.25;;;5.90;88.50;;;;;;5064578;28;20240;-59
2021/12/09 03:21:29;;;;;;;13.38;2.53;;;5.90;88.90;;;;;;5015072;28;20053;-61
2021/12/09 03:23:57;;;;;;;13.30;2.58;;;5.90;88.30;;;;;;5043953;28;20049;-60
2021/12/09 03:26:29;;;;;;;14.50;2.50;;;5.90;88.80;;;;;;5043482;28;20052;-61
2021/12/09 03:28:57;;;;;;;12.85;3.38;;;5.90;88.30;;;;;;5033036;28;20095;-60
2021/12/09 03:31:24;;;;;;;13.80;2.05;;;5.80;88.30;;;;;;5031365;28;20049;-61
2021/12/09 03:33:51;;;;;;;15.48;2.90;;;5.80;89.00;;;;;;5040140;28;20407;-61
2021/12/09 03:36:18;;;;;;;17.55;2.60;;;5.80;89.50;;;;;;5042142;28;20496;-61
2021/12/09 03:38:44;;;;;;;13.30;2.55;;;5.70;89.10;;;;;;5043783;28;20041;-60
2021/12/09 03:41:11;;;;;;;17.52;2.03;;;5.70;89.40;;;;;;5044351;28;20076;-61
2021/12/09 03:43:38;;;;;;;18.67;2.25;;;5.70;88.70;;;;;;5039051;28;20049;-61
2021/12/09 03:46:05;;;;;;;9.27;1.88;;;5.70;89.10;;;;;;5028187;28;20555;-61
2021/12/09 03:48:32;;;;;;;13.85;3.38;;;5.70;89.20;;;;;;5037583;28;20037;-61
2021/12/09 03:50:59;;;;;;;13.52;2.75;;;5.70;89.50;;;;;;5034244;28;20049;-61
2021/12/09 03:53:25;;;;;;;13.25;2.33;;;5.70;89.40;;;;;;5042819;28;20041;-61
2021/12/09 03:55:52;;;;;;;21.05;5.22;;;5.70;89.30;;;;;;5030902;28;20104;-60
2021/12/09 03:58:19;;;;;;;10.73;2.25;;;5.70;90.10;;;;;;5038466;28;20042;-60
2021/12/09 04:00:47;;;;;;;10.85;2.53;;;5.70;89.80;;;;;;5051340;28;20049;-60
2021/12/09 04:03:16;;;;;;;12.80;2.00;;;5.70;89.70;;;;;;5035995;28;20087;-60
2021/12/09 04:05:43;;;;;;;19.85;4.07;;;5.70;89.90;;;;;;5034130;28;20053;-60
2021/12/09 04:08:10;;;;;;;12.77;1.95;;;5.70;89.70;;;;;;5029849;28;20099;-60
2021/12/09 04:10:37;;;;;;;7.78;1.80;;;5.70;89.60;;;;;;5033363;28;20095;-60
2021/12/09 04:13:04;;;;;;;15.02;2.40;;;5.70;89.70;;;;;;5036038;28;20493;-60
2021/12/09 04:15:31;;;;;;;7.75;1.88;;;5.70;90.00;;;;;;5044514;28;20064;-60
2021/12/09 04:17:58;;;;;;;12.77;3.08;;;5.70;90.00;;;;;;5034576;28;20052;-60
2021/12/09 04:20:25;;;;;;;13.60;2.10;;;5.70;89.60;;;;;;5042938;28;20448;-60
2021/12/09 04:22:52;;;;;;;17.70;4.78;;;5.70;90.00;;;;;;5021084;28;20087;-59
2021/12/09 04:25:20;;;;;;;11.80;2.35;;;5.70;89.90;;;;;;5040256;28;20089;-60
2021/12/09 04:27:48;;;;;;;19.35;4.10;;;5.60;90.00;;;;;;5034143;28;20037;-61
2021/12/09 04:30:15;;;;;;;12.30;1.90;;;5.60;90.10;;;;;;5039561;28;20110;-61
2021/12/09 04:32:42;;;;;;;16.40;3.38;;;5.60;90.00;;;;;;5049743;28;20048;-60
2021/12/09 04:35:09;;;;;;;15.02;2.20;;;5.60;90.10;;;;;;5041551;28;20046;-61
2021/12/09 04:37:36;;;;;;;9.85;1.70;;;5.60;90.10;;;;;;5007371;28;20057;-61
2021/12/09 04:40:06;;;;;;;17.85;4.53;;;5.60;90.20;;;;;;5042900;28;20088;-60
2021/12/09 04:42:32;;;;;;;10.05;1.92;;;5.60;90.20;;;;;;5031157;28;20053;-61
2021/12/09 04:44:59;;;;;;;13.20;3.17;;;5.50;90.10;;;;;;5036355;28;20412;-60
2021/12/09 04:47:26;;;;;;;16.45;2.65;;;5.60;90.20;;;;;;5066052;28;20048;-60
2021/12/09 04:49:53;;;;;;;16.58;3.13;;;5.50;90.20;;;;;;5048807;28;20504;-60
2021/12/09 04:52:20;;;;;;;6.25;2.13;;;5.60;90.20;;;;;;5030610;28;20061;-60
2021/12/09 04:54:46;;;;;;;10.07;2.50;;;5.60;90.30;;;;;;5034117;28;20509;-65
2021/12/09 04:57:13;;;;;;;12.20;2.13;;;5.50;90.20;;;;;;5047551;28;20044;-60
2021/12/09 04:59:40;;;;;;;20.05;2.72;;;5.50;90.20;;;;;;5044895;28;20542;-60
2021/12/09 05:02:20;;;;;;;9.32;1.77;;;5.60;90.30;;;;;;5046959;28;20084;-61
2021/12/09 05:04:48;;;;;;;7.43;1.92;;;5.50;90.30;;;;;;5046338;28;20094;-61
2021/12/09 05:07:15;;;;;;;8.63;2.33;;;5.50;90.30;;;;;;5035320;28;20050;-60
2021/12/09 05:09:49;;;;;;;15.20;2.25;;;5.60;90.40;;;;;;5034323;28;20111;-61
2021/12/09 05:12:18;;;;;;;9.80;2.58;;;5.50;90.40;;;;;;5043797;28;20053;-60
2021/12/09 05:14:45;;;;;;;12.50;2.53;;;5.50;90.50;;;;;;5056829;28;20049;-60
2021/12/09 05:17:12;;;;;;;14.05;2.78;;;5.50;90.60;;;;;;5041687;28;20053;-60
2021/12/09 05:19:38;;;;;;;16.30;2.85;;;5.40;90.80;;;;;;5045257;28;20049;-61
2021/12/09 05:22:05;;;;;;;17.83;2.17;;;5.40;90.80;;;;;;5058129;28;20550;-60
2021/12/09 05:24:37;;;;;;;12.07;1.95;;;5.40;90.80;;;;;;5067350;28;20044;-60
2021/12/09 05:27:05;;;;;;;16.45;3.33;;;5.40;90.80;;;;;;5056335;28;20064;-65
2021/12/09 05:29:43;;;;;;;8.27;2.58;;;5.50;90.80;;;;;;5057574;28;20080;-60
2021/12/09 05:32:13;;;;;;;11.77;2.00;;;5.30;90.90;;;;;;5042134;28;20045;-60
2021/12/09 05:34:45;;;;;;;9.90;1.80;;;5.30;91.00;;;;;;5066312;28;20057;-60
2021/12/09 05:37:14;;;;;;;18.05;2.20;;;5.30;91.00;;;;;;5058322;28;20056;-61
2021/12/09 05:39:41;;;;;;;13.02;2.63;;;5.30;91.00;;;;;;5054803;28;20055;-60
2021/12/09 05:42:09;;;;;;;15.68;2.08;;;5.20;91.10;;;;;;5061112;28;20049;-60
2021/12/09 05:44:36;;;;;;;10.35;2.60;;;5.20;91.20;;;;;;5049355;28;20570;-60
2021/12/09 05:47:05;;;;;;;15.77;1.70;;;5.20;91.20;;;;;;5055162;28;20158;-60
2021/12/09 05:49:34;;;;;;;16.70;2.40;;;5.20;91.30;;;;;;5069271;28;20041;-60
2021/12/09 05:52:00;;;;;;;15.05;2.50;;;5.10;91.30;;;;;;5064474;28;20060;-60
2021/12/09 05:54:27;;;;;;;12.63;2.15;;;5.10;91.30;;;;;;5049446;28;20488;-60
2021/12/09 05:56:54;;;;;;;11.88;1.73;;;5.10;91.40;;;;;;5052971;28;20049;-60
2021/12/09 05:59:21;;;;;;;13.43;1.80;;;5.10;91.40;;;;;;5067243;28;20462;-60
2021/12/09 06:01:48;;;;;;;11.13;2.10;;;5.10;91.60;;;;;;5064471;28;20044;-60
2021/12/09 06:04:15;;;;;;;14.07;2.20;;;5.00;91.50;;;;;;5052758;28;20099;-60
2021/12/09 06:06:42;;;;;;;12.40;2.13;;;5.00;91.60;;;;;;5050278;28;20049;-60
2021/12/09 06:09:09;;;;;;;11.77;2.35;;;5.00;91.70;;;;;;5049003;28;20160;-60
2021/12/09 06:11:36;;;;;;;16.90;2.05;;;5.00;91.60;;;;;;5052158;28;20044;-60
2021/12/09 06:14:03;;;;;;;8.50;1.80;;;4.90;91.60;;;;;;5047845;28;20094;-60
2021/12/09 06:16:30;;;;;;;8.05;1.60;;;4.90;91.70;;;;;;5053775;28;20054;-60
2021/12/09 06:18:57;;;;;;;14.98;2.17;;;4.90;91.60;;;;;;5058601;28;20040;-60
2021/12/09 06:21:27;;;;;;;14.13;2.35;;;4.90;91.60;;;;;;5056747;28;20053;-60
2021/12/09 06:23:55;;;;;;;12.45;1.90;;;4.90;91.70;;;;;;5056746;28;20041;-60
2021/12/09 06:26:21;;;;;;;16.88;2.55;;;4.90;91.70;;;;;;5067400;28;20529;-60
2021/12/09 06:28:48;;;;;;;9.88;2.28;;;4.90;91.70;;;;;;5043477;28;20045;-60
2021/12/09 06:31:15;;;;;;;15.57;2.50;;;4.90;91.60;;;;;;5048405;28;20495;-60
2021/12/09 06:33:42;;;;;;;15.20;3.05;;;4.90;91.60;;;;;;5054517;28;20055;-60
2021/12/09 06:36:09;;;;;;;15.70;1.77;;;4.90;91.60;;;;;;5034818;28;20049;-61
2021/12/09 06:38:36;;;;;;;10.30;2.15;;;4.80;91.90;;;;;;5045170;28;20080;-60
2021/12/09 06:41:04;;;;;;;16.15;2.63;;;4.80;92.00;;;;;;5026993;28;20060;-60
2021/12/09 06:43:31;;;;;;;9.88;2.50;;;4.80;92.00;;;;;;5045280;28;20069;-61
2021/12/09 06:45:58;;;;;;;14.45;2.88;;;4.80;91.80;;;;;;5051208;28;20046;-60
2021/12/09 06:48:25;;;;;;;31.67;2.53;;;4.80;91.90;;;;;;5046159;28;20496;-60
2021/12/09 06:50:52;;;;;;;17.67;2.25;;;4.70;92.00;;;;;;5039464;28;20057;-60
2021/12/09 06:53:18;;;;;;;10.43;2.67;;;4.70;92.10;;;;;;5045109;28;20144;-60
2021/12/09 06:55:45;;;;;;;11.23;2.00;;;4.70;92.10;;;;;;5063414;28;20084;-61
2021/12/09 06:58:12;;;;;;;15.18;2.75;;;4.70;92.00;;;;;;5054412;28;20074;-60
2021/12/09 07:00:41;;;;;;;13.77;1.67;;;4.70;92.10;;;;;;5041930;28;20450;-60
2021/12/09 07:03:10;;;;;;;13.55;2.13;;;4.60;92.10;;;;;;5055424;28;20525;-61
2021/12/09 07:05:37;;;;;;;16.30;2.00;;;4.60;92.10;;;;;;5061837;28;20629;-61
2021/12/09 07:08:05;;;;;;;13.20;1.92;;;4.60;92.20;;;;;;5070919;28;20053;-60
2021/12/09 07:10:32;;;;;;;9.77;1.73;;;4.60;92.20;;;;;;5057967;28;20063;-60
2021/12/09 07:12:59;;;;;;;13.60;2.50;;;4.60;92.10;;;;;;5054632;28;20048;-60
2021/12/09 07:15:25;;;;;;;20.90;2.00;;;4.60;92.40;;;;;;5056577;28;20037;-60
2021/12/09 07:17:52;;;;;;;8.88;1.80;;;4.50;92.20;;;;;;5051821;28;20041;-60
2021/12/09 07:20:20;;;;;;;12.63;2.55;;;4.50;92.10;;;;;;5079255;28;20044;-60
2021/12/09 07:22:48;;;;;;;15.65;3.72;;;4.60;92.40;;;;;;5051228;28;20507;-60
2021/12/09 07:25:16;;;;;;;14.30;1.92;;;4.60;92.60;;;;;;5051945;28;20045;-60
2021/12/09 07:27:43;;;;;;;14.77;2.55;;;4.60;92.60;;;;;;5051525;28;20045;-59
2021/12/09 07:30:10;;;;;;;11.63;1.88;;;4.60;92.60;;;;;;5052699;28;20091;-59
2021/12/09 07:32:37;;;;;;;15.73;4.18;;;4.50;92.30;;;;;;5048314;28;20123;-59
2021/12/09 07:35:05;;;;;;;7.63;1.95;;;4.60;92.30;;;;;;5059345;28;20093;-59
2021/12/09 07:37:32;;;;;;;15.23;2.17;;;4.60;92.30;;;;;;5068734;28;20047;-60
2021/12/09 07:39:59;;;;;;;15.48;3.05;;;4.50;92.40;;;;;;5054052;28;20134;-58
2021/12/09 07:42:26;;;;;;;19.48;2.38;;;4.60;92.70;;;;;;5050970;28;20106;-59
2021/12/09 07:44:53;;;;;;;13.23;2.75;;;4.60;92.50;;;;;;5053089;28;20079;-56
2021/12/09 07:47:20;;;;;;;8.05;2.33;;;4.60;92.40;;;;;;5063922;28;20084;-56
2021/12/09 07:49:47;;;;;;;8.27;2.55;;;4.60;92.50;;;;;;5053345;28;20541;-58
2021/12/09 07:52:13;;;;;;;12.43;2.20;;;4.60;92.40;;;;;;5032651;28;20044;-58
2021/12/09 07:54:40;;;;;;;13.07;2.72;;;4.60;92.60;;;;;;5054178;28;20076;-58
2021/12/09 07:57:07;;;;;;;14.85;3.03;;;4.60;92.60;;;;;;5016419;28;20666;-57
2021/12/09 07:59:34;;;;;;;15.30;3.00;;;4.60;92.40;;;;;;5039277;28;20080;-53
2021/12/09 08:02:02;;;;;;;17.30;2.40;;;4.60;92.40;;;;;;5056667;28;20457;-55
2021/12/09 08:04:30;;;;;;;17.73;2.60;;;4.60;92.60;;;;;;5025290;28;20056;-56
2021/12/09 08:06:57;;;;;;;18.52;2.45;;;4.60;92.50;;;;;;5032968;28;20048;-57
2021/12/09 08:09:24;;;;;;;16.20;2.90;;;4.60;92.50;;;;;;5038846;28;20049;-57
2021/12/09 08:11:51;;;;;;;13.80;2.47;;;4.70;92.50;;;;;;5054011;28;20099;-54
2021/12/09 08:14:19;;;;;;;15.52;4.25;;;4.70;92.60;;;;;;5054346;28;20128;-55
2021/12/09 08:16:56;;;;;;;30.65;2.78;;;4.70;92.50;;;;;;5052514;28;20106;-55
2021/12/09 08:19:23;;;;;;;15.23;1.83;;;4.70;92.50;;;;;;5043832;28;20538;-53
2021/12/09 08:21:50;;;;;;;18.50;2.22;;;4.70;92.50;;;;;;5051408;28;20056;-61
2021/12/09 08:24:17;;;;;;;10.07;2.80;;;4.70;92.50;;;;;;5041247;28;20041;-57
2021/12/09 08:26:53;;;;;;;6.63;1.58;;;4.80;92.60;;;;;;5054209;28;20095;-59
2021/12/09 08:29:21;;;;;;;14.60;2.38;;;4.80;92.40;;;;;;5051210;28;20045;-57
2021/12/09 08:31:48;;;;;;;17.20;2.45;;;4.80;92.40;;;;;;5046493;28;20484;-59
2021/12/09 08:34:17;;;;;;;15.45;3.47;;;4.80;92.40;;;;;;5048458;28;20053;-58
2021/12/09 08:36:52;;;;;;;11.30;2.30;;;4.90;92.40;;;;;;5052931;28;20468;-57
2021/12/09 08:39:20;;;;;;;13.25;3.45;;;4.90;92.40;;;;;;5052415;28;20079;-58
2021/12/09 08:41:46;;;;;;;14.48;1.75;;;4.90;92.30;;;;;;5052383;28;20044;-58
2021/12/09 08:44:13;;;;;;;16.90;4.70;;;4.90;92.30;;;;;;5047487;28;20455;-58
2021/12/09 08:46:40;;;;;;;12.23;2.33;;;4.90;92.40;;;;;;5053182;28;20049;-57
2021/12/09 08:49:08;;;;;;;12.80;2.85;;;5.00;92.40;;;;;;5060451;28;20156;-56
2021/12/09 08:51:35;;;;;;;12.00;2.42;;;5.00;92.20;;;;;;5052200;28;20055;-59
2021/12/09 08:54:03;;;;;;;6.85;1.83;;;5.10;92.20;;;;;;5058204;28;20048;-58
2021/12/09 08:56:31;;;;;;;13.55;3.03;;;5.10;92.20;;;;;;5049906;28;20088;-58
2021/12/09 08:58:58;;;;;;;14.98;2.28;;;5.10;92.10;;;;;;5031030;28;20049;-59
2021/12/09 09:01:24;;;;;;;12.93;2.80;;;5.10;92.10;;;;;;5045111;28;20045;-58
2021/12/09 09:03:51;;;;;;;9.55;2.03;;;5.10;92.10;;;;;;5057246;28;20127;-57
2021/12/09 09:06:18;;;;;;;20.15;4.15;;;5.20;92.10;;;;;;5043501;28;20049;-59
2021/12/09 09:08:45;;;;;;;19.10;2.70;;;5.20;92.10;;;;;;5048270;28;20044;-59
2021/12/09 09:11:12;;;;;;;25.77;4.10;;;5.30;92.10;;;;;;5047751;28;20102;-57
2021/12/09 09:13:40;;;;;;;11.05;2.33;;;5.30;92.00;;;;;;5052696;28;20053;-59
2021/12/09 09:16:07;;;;;;;8.30;1.50;;;5.30;92.10;;;;;;5047236;28;20059;-58
2021/12/09 09:18:34;;;;;;;11.70;2.08;;;5.30;91.80;;;;;;5052698;28;20114;-59
2021/12/09 09:21:01;;;;;;;9.32;3.17;;;5.30;91.90;;;;;;5061615;28;20092;-59
2021/12/09 09:23:28;;;;;;;9.32;2.40;;;5.30;92.00;;;;;;5052769;28;20041;-60
2021/12/09 09:25:55;;;;;;;12.93;1.90;;;5.30;91.90;;;;;;5057264;28;20045;-57
2021/12/09 09:28:25;;;;;;;13.73;2.72;;;5.30;91.90;;;;;;5053803;28;20047;-61
2021/12/09 09:30:57;;;;;;;14.30;3.10;;;5.30;92.00;;;;;;5063423;28;20053;-59
2021/12/09 09:33:26;;;;;;;10.63;2.25;;;5.30;92.20;;;;;;5060308;28;20045;-59
2021/12/09 09:35:53;;;;;;;10.85;2.50;;;5.40;91.90;;;;;;5062104;28;20049;-59
2021/12/09 09:38:21;;;;;;;10.75;2.72;;;5.40;91.90;;;;;;5035996;28;20048;-62
2021/12/09 09:40:52;;;;;;;10.60;2.22;;;5.50;91.70;;;;;;5059062;28;20114;-59
2021/12/09 09:43:29;;;;;;;18.95;2.90;;;5.50;91.90;;;;;;5053042;28;20506;-59
2021/12/09 09:46:04;;;;;;;14.45;1.80;;;5.50;91.90;;;;;;5050420;28;20071;-59
2021/12/09 09:48:31;;;;;;;13.02;3.13;;;5.50;91.90;;;;;;5065698;28;20048;-58
2021/12/09 09:50:58;;;;;;;15.50;2.53;;;5.50;92.20;;;;;;5047652;28;20048;-59
2021/12/09 09:53:25;;;;;;;10.40;2.75;;;5.50;91.90;;;;;;5046146;28;20118;-58
2021/12/09 09:55:52;;;;;;;13.25;4.05;;;5.70;91.90;;;;;;5059947;28;20170;-58
2021/12/09 09:58:19;;;;;;;8.65;2.10;;;5.50;91.90;;;;;;5049404;28;20210;-58
2021/12/09 10:00:47;;;;;;;13.02;1.88;;;5.50;91.90;;;;;;5030885;28;20048;-58
2021/12/09 10:03:17;;;;;;;17.50;2.50;;;5.60;91.80;;;;;;5037322;28;20041;-57
2021/12/09 10:05:48;;;;;;;13.80;2.20;;;5.60;91.80;;;;;;5033956;28;20568;-58
2021/12/09 10:08:16;;;;;;;8.68;1.85;;;5.60;91.80;;;;;;5064213;28;20048;-60
2021/12/09 10:10:52;;;;;;;13.43;2.15;;;5.60;91.90;;;;;;5031852;28;20049;-59
2021/12/09 10:13:21;;;;;;;24.80;3.55;;;5.60;91.70;;;;;;5052465;28;20103;-58
2021/12/09 10:15:50;;;;;;;17.95;2.40;;;5.60;91.60;;;;;;5044244;28;20067;-59
2021/12/09 10:18:43;;;;;;;14.00;2.60;;;5.60;91.60;;;;;;5055455;28;20051;-58
2021/12/09 10:21:12;;;;;;;9.00;1.87;;;5.60;91.70;;;;;;5072516;28;20083;-58
2021/12/09 10:23:45;;;;;;;8.75;2.10;;;5.70;91.70;;;;;;5073622;28;20105;-59
2021/12/09 10:26:15;;;;;;;11.05;3.28;;;5.70;91.70;;;;;;5072136;28;20056;-59
2021/12/09 10:28:48;;;;;;;19.15;3.00;;;5.80;91.80;;;;;;5055234;28;20041;-58
2021/12/09 10:31:17;;;;;;;16.67;3.03;;;5.80;91.60;;;;;;5059740;28;20332;-57
2021/12/09 10:33:59;;;;;;;9.25;3.03;;;5.90;91.60;;;;;;5054820;28;20076;-58
2021/12/09 10:36:46;;;;;;;12.90;2.80;;;5.90;91.40;;;;;;5054710;28;20045;-56
2021/12/09 10:39:25;;;;;;;9.52;2.30;;;6.00;91.30;;;;;;5063797;28;20055;-58
2021/12/09 10:41:53;;;;;;;21.85;4.30;;;6.00;91.20;;;;;;5062086;28;20102;-58
2021/12/09 10:44:31;;;;;;;16.25;2.83;;;6.10;91.30;;;;;;5043294;28;20136;-57
2021/12/09 10:47:15;;;;;;;14.82;3.35;;;6.10;91.10;;;;;;5066660;28;20061;-57
2021/12/09 10:49:47;;;;;;;;;;;6.20;91.20;;;;;;5067319;28;20045;-61
2021/12/09 10:52:38;;;;;;;23.30;2.40;;;6.20;90.80;;;;;;5072094;28;19928;-60
2021/12/09 10:55:14;;;;;;;14.23;2.53;;;6.20;91.00;;;;;;5069777;28;20041;-60
2021/12/09 10:57:41;;;;;;;13.93;3.50;;;6.20;91.00;;;;;;5084919;28;20037;-60
2021/12/09 11:00:26;;;;;;;21.77;2.60;;;6.30;91.00;;;;;;5052723;28;20097;-60
2021/12/09 11:03:19;;;;;;;16.55;2.50;;;6.30;91.10;;;;;;5079961;28;20059;-60
2021/12/09 11:05:58;;;;;;;18.45;2.35;;;6.40;90.60;;;;;;5085551;28;20059;-60
2021/12/09 11:08:34;;;;;;;15.88;2.35;;;6.40;90.80;;;;;;5080650;28;20083;-59
2021/12/09 11:11:12;;;;;;;11.57;2.15;;;6.40;90.60;;;;;;5036873;28;20293;-60
2021/12/09 11:13:42;;;;;;;8.57;1.65;;;6.40;90.90;;;;;;5065324;28;20084;-60
2021/12/09 11:16:09;;;;;;;8.68;2.35;;;6.40;90.80;;;;;;5051247;28;20102;-59
2021/12/09 11:18:43;;;;;;;14.88;2.40;;;6.40;90.90;;;;;;5060509;28;20049;-58
2021/12/09 11:21:28;;;;;;;15.95;3.67;;;6.40;90.80;;;;;;5047329;28;20049;-58
2021/12/09 11:24:17;;;;;;;18.23;1.90;;;6.50;90.50;;;;;;5058008;28;20041;-57
2021/12/09 11:26:59;;;;;;;23.77;2.75;;;6.50;90.20;;;;;;5051138;28;20415;-58
2021/12/09 11:29:47;;;;;;;9.45;2.13;;;6.60;90.40;;;;;;5048893;28;20048;-58
2021/12/09 11:32:30;;;;;;;16.05;2.78;;;6.60;90.50;;;;;;5052067;28;20107;-57
2021/12/09 11:35:04;;;;;;;22.63;3.28;;;6.60;90.30;;;;;;5061083;28;20102;-58
2021/12/09 11:40:06;;;;;;;12.55;3.17;;;6.70;90.30;;;;;;5029835;28;20121;-59
2021/12/09 11:42:53;;;;;;;14.80;2.70;;;6.90;90.00;;;;;;5051343;28;20083;-58
2021/12/09 11:45:23;;;;;;;10.32;2.67;;;6.90;89.00;;;;;;5061296;28;20561;-58
2021/12/09 11:47:51;;;;;;;13.13;2.90;;;6.90;89.20;;;;;;5053761;28;20509;-58
2021/12/09 11:50:21;;;;;;;15.88;2.97;;;7.00;90.30;;;;;;5055401;28;20460;-59
2021/12/09 11:52:48;;;;;;;18.85;3.80;;;7.10;89.40;;;;;;5051263;28;20049;-59
2021/12/09 11:55:17;;;;;;;14.85;2.65;;;7.20;90.10;;;;;;5057013;28;20550;-60
2021/12/09 11:58:08;;;;;;;17.38;2.85;;;7.30;88.70;;;;;;5050280;28;20067;-59
2021/12/09 12:20:59;;;;;;;18.70;3.33;;;7.60;86.40;;;;;;5062926;28;20079;-59
2021/12/09 12:26:53;;;;;;;17.95;4.95;;;7.70;85.60;;;;;;5052209;28;20105;-59
2021/12/09 12:35:42;;;;;;;10.25;2.58;;;7.70;87.90;;;;;;4980805;28;20049;-59
2021/12/09 12:41:12;;;;;;;18.40;2.40;;;7.80;84.20;;;;;;5031894;28;20071;-59
2021/12/09 12:43:51;;;;;;;14.30;2.57;;;7.80;84.00;;;;;;5033587;28;20488;-58
2021/12/09 12:47:16;;;;;;;17.10;3.17;;;7.80;86.40;;;;;;5061809;28;20590;-59
2021/12/09 12:49:39;;;;;;;7.28;1.77;;;7.80;84.60;;;;;;5001882;28;20067;-59
2021/12/09 12:52:11;;;;;;;17.42;2.35;;;7.80;86.70;;;;;;5049475;28;20107;-59
2021/12/09 12:54:55;;;;;;;20.08;3.45;;;7.80;86.80;;;;;;5067310;28;20048;-59
2021/12/09 12:57:34;;;;;;;18.08;3.25;;;7.90;86.60;;;;;;5051810;28;20045;-59
2021/12/09 13:00:30;;;;;;;11.60;2.30;;;7.90;84.70;;;;;;5065335;28;20463;-59
2021/12/09 13:05:54;;;;;;;17.08;2.42;;;7.90;85.70;;;;;;5053680;28;20436;-59
2021/12/09 13:11:19;;;;;;;17.48;2.53;;;8.00;84.00;;;;;;5054487;28;20049;-59
2021/12/09 13:14:05;;;;;;;15.48;2.58;;;8.00;85.40;;;;;;5059698;28;20048;-59
2021/12/09 13:16:48;;;;;;;18.08;2.65;;;8.10;86.10;;;;;;5060152;28;20102;-59
2021/12/09 13:19:36;;;;;;;11.95;2.30;;;8.10;83.50;;;;;;5030216;28;20103;-59
2021/12/09 13:22:08;;;;;;;16.35;2.22;;;8.10;82.60;;;;;;5051590;28;20106;-58
2021/12/09 13:25:14;;;;;;;8.23;2.05;;;8.10;84.30;;;;;;5069806;28;20411;-59
2021/12/09 13:28:00;;;;;;;9.65;2.00;;;8.10;83.20;;;;;;5047555;28;20503;-59
2021/12/09 13:47:08;;;;;;;14.68;2.08;;;8.40;83.70;;;;;;5052855;28;20114;-59
2021/12/09 13:50:37;;;;;;;12.15;2.67;;;8.40;84.40;;;;;;5048345;28;20447;-59
2021/12/09 13:55:12;;;;;;;11.38;2.08;;;8.30;84.70;;;;;;5051933;28;20044;-59
2021/12/09 13:57:46;;;;;;;16.75;3.03;;;8.30;84.30;;;;;;5064543;28;20129;-59
2021/12/09 14:00:19;;;;;;;13.27;2.30;;;8.30;84.40;;;;;;5051615;28;20049;-59
2021/12/09 14:02:49;;;;;;;14.73;2.13;;;8.30;82.60;;;;;;5052776;28;20040;-59